Time;durP1;ratioP1;P1;durP2;ratioP2;P2;SDS_P1;SDS_P2;PMS_P1;PMS_P2;Temp;Humidity;BMP_temperature;BMP_pressure;BME280_temperature;BME280_humidity;BME280_pressure;Samples;Min_cycle;Max_cycle;Signal;HPM_P1;HPM_P2
2023/01/01 00:01:49;;;;;;;34.50;30.70;;;14.10;99.90;;;;;;5117541;28;20553;-55
2023/01/01 00:04:16;;;;;;;32.60;27.10;;;14.20;99.90;;;;;;5117271;28;20446;-54
2023/01/01 00:06:44;;;;;;;29.50;26.33;;;14.20;99.90;;;;;;5117263;28;20449;-55
2023/01/01 00:11:56;;;;;;;31.10;27.90;;;14.20;99.90;;;;;;5117159;28;20432;-55
2023/01/01 00:14:25;;;;;;;30.67;25.10;;;14.20;99.90;;;;;;5117254;28;20453;-55
2023/01/01 00:16:54;;;;;;;27.83;24.30;;;14.20;99.90;;;;;;5116870;28;20806;-55
2023/01/01 00:19:22;;;;;;;26.67;23.17;;;14.20;99.90;;;;;;5116787;28;20478;-54
2023/01/01 00:21:49;;;;;;;29.60;24.73;;;14.20;99.90;;;;;;5116781;28;21028;-54
2023/01/01 00:24:16;;;;;;;22.67;19.33;;;14.10;99.90;;;;;;5117044;28;20442;-55
2023/01/01 00:26:43;;;;;;;21.10;18.67;;;14.20;99.90;;;;;;5117001;28;20531;-55
2023/01/01 00:29:10;;;;;;;19.43;17.50;;;14.20;99.90;;;;;;5116533;28;20453;-54
2023/01/01 00:31:39;;;;;;;19.60;17.57;;;14.20;99.90;;;;;;5116910;28;20537;-55
2023/01/01 00:34:06;;;;;;;20.10;17.33;;;14.20;99.90;;;;;;5116427;28;20570;-55
2023/01/01 00:36:33;;;;;;;16.80;15.13;;;14.20;99.90;;;;;;5117188;28;20442;-54
2023/01/01 00:39:02;;;;;;;26.33;17.70;;;14.20;99.90;;;;;;5116941;28;20806;-55
2023/01/01 00:41:29;;;;;;;17.63;15.87;;;14.20;99.90;;;;;;5116417;28;20477;-55
2023/01/01 00:43:56;;;;;;;17.50;14.50;;;14.20;99.90;;;;;;5116092;28;20474;-55
2023/01/01 00:46:24;;;;;;;13.77;11.87;;;14.20;99.90;;;;;;5116455;28;20634;-54
2023/01/01 00:48:52;;;;;;;16.80;14.10;;;14.30;99.90;;;;;;5116651;28;20557;-55
2023/01/01 00:51:19;;;;;;;13.70;12.03;;;14.30;99.90;;;;;;5116735;28;20466;-55
2023/01/01 00:53:46;;;;;;;17.90;12.70;;;14.20;99.90;;;;;;5116573;28;20447;-55
2023/01/01 00:56:13;;;;;;;11.00;9.90;;;14.30;99.90;;;;;;5116494;28;20477;-54
2023/01/01 00:58:41;;;;;;;16.40;12.10;;;14.30;99.90;;;;;;5116171;28;20467;-55
2023/01/01 01:01:08;;;;;;;11.73;10.17;;;14.30;99.90;;;;;;5116068;28;20473;-55
2023/01/01 01:03:37;;;;;;;14.37;11.67;;;14.20;99.90;;;;;;5116042;28;20948;-55
2023/01/01 01:06:12;;;;;;;12.37;11.00;;;14.20;99.90;;;;;;5116260;28;20454;-54
2023/01/01 01:08:41;;;;;;;10.80;9.40;;;14.20;99.90;;;;;;5115815;28;20478;-55
2023/01/01 01:11:10;;;;;;;11.10;10.00;;;14.20;99.90;;;;;;5116121;28;20466;-54
2023/01/01 01:13:38;;;;;;;13.93;10.47;;;14.20;99.90;;;;;;5116030;28;20537;-54
2023/01/01 01:16:10;;;;;;;12.60;10.03;;;14.20;99.90;;;;;;5115950;28;20449;-54
2023/01/01 01:18:37;;;;;;;13.27;10.07;;;14.20;99.90;;;;;;5115668;28;20553;-54
2023/01/01 01:21:05;;;;;;;12.27;10.07;;;14.20;99.90;;;;;;5115982;28;20473;-54
2023/01/01 01:23:33;;;;;;;12.77;9.73;;;14.20;99.90;;;;;;5115986;28;20482;-54
2023/01/01 01:26:08;;;;;;;11.13;9.37;;;14.20;99.90;;;;;;5116031;28;20803;-54
2023/01/01 01:28:35;;;;;;;11.63;10.30;;;14.20;99.90;;;;;;5115881;28;20465;-54
2023/01/01 01:31:03;;;;;;;13.73;10.67;;;14.20;99.90;;;;;;5115641;28;20806;-55
2023/01/01 01:33:30;;;;;;;11.60;9.43;;;14.10;99.90;;;;;;5115874;28;20799;-54
2023/01/01 01:35:57;;;;;;;11.90;9.27;;;14.00;99.90;;;;;;5115512;28;20446;-54
2023/01/01 01:38:24;;;;;;;11.30;10.17;;;14.00;99.90;;;;;;5115595;28;20517;-54
2023/01/01 01:40:53;;;;;;;16.33;13.33;;;14.00;99.90;;;;;;5115619;28;20489;-54
2023/01/01 01:43:23;;;;;;;15.30;10.70;;;13.90;99.90;;;;;;5115171;28;20485;-54
2023/01/01 01:45:54;;;;;;;14.67;11.23;;;13.90;99.90;;;;;;5115236;28;20897;-54
2023/01/01 01:48:22;;;;;;;15.20;12.60;;;13.70;99.90;;;;;;5115126;28;20442;-55
2023/01/01 01:50:51;;;;;;;16.97;11.20;;;13.60;99.90;;;;;;5115383;28;20549;-54
2023/01/01 01:53:27;;;;;;;13.40;10.93;;;13.40;99.90;;;;;;5114866;28;20495;-54
2023/01/01 01:55:58;;;;;;;16.97;12.20;;;13.40;99.90;;;;;;5115405;28;20511;-55
2023/01/01 01:58:26;;;;;;;14.17;12.67;;;13.40;99.90;;;;;;5114745;28;20839;-55
2023/01/01 02:00:54;;;;;;;14.70;12.57;;;13.40;99.90;;;;;;5115323;28;20513;-56
2023/01/01 02:03:24;;;;;;;14.27;12.73;;;13.20;99.90;;;;;;5114971;28;20529;-55
2023/01/01 02:05:52;;;;;;;13.30;11.93;;;13.10;99.90;;;;;;5115229;28;20423;-54
2023/01/01 02:08:21;;;;;;;13.03;10.00;;;12.90;99.90;;;;;;5115285;28;20451;-54
2023/01/01 02:10:48;;;;;;;14.13;10.90;;;13.00;99.90;;;;;;5115048;28;20797;-54
2023/01/01 02:13:17;;;;;;;13.60;11.73;;;12.90;99.90;;;;;;5114929;28;20446;-55
2023/01/01 02:15:51;;;;;;;11.10;9.90;;;12.80;99.90;;;;;;5115072;28;20781;-55
2023/01/01 02:18:24;;;;;;;13.23;10.00;;;12.70;99.90;;;;;;5114665;28;20466;-55
2023/01/01 02:20:57;;;;;;;11.90;10.23;;;12.90;99.90;;;;;;5114803;28;20498;-55
2023/01/01 02:23:52;;;;;;;11.20;8.97;;;13.00;99.90;;;;;;5114658;28;20422;-55
2023/01/01 02:26:42;;;;;;;11.90;10.47;;;13.10;99.90;;;;;;5114889;28;20435;-55
2023/01/01 02:29:34;;;;;;;16.07;11.40;;;13.00;99.90;;;;;;5114464;28;20921;-55
2023/01/01 02:32:05;;;;;;;11.57;10.53;;;12.90;99.90;;;;;;5114520;28;20426;-55
2023/01/01 02:34:38;;;;;;;12.63;9.00;;;12.80;99.90;;;;;;5114698;28;20483;-55
2023/01/01 02:37:10;;;;;;;9.57;8.10;;;13.00;99.90;;;;;;5114518;28;20430;-55
2023/01/01 02:39:43;;;;;;;9.13;7.70;;;13.30;99.90;;;;;;5114520;28;20482;-55
2023/01/01 02:42:10;;;;;;;9.60;8.40;;;13.50;99.90;;;;;;5114253;28;20433;-55
2023/01/01 02:44:43;;;;;;;12.23;8.63;;;13.70;99.90;;;;;;5114099;28;20477;-55
2023/01/01 02:47:13;;;;;;;9.53;8.53;;;13.70;99.90;;;;;;5114205;28;20445;-55
2023/01/01 02:49:49;;;;;;;9.60;8.70;;;13.70;99.90;;;;;;5113965;28;20464;-55
2023/01/01 02:52:26;;;;;;;11.00;8.47;;;13.70;99.90;;;;;;5114115;28;20923;-55
2023/01/01 02:55:01;;;;;;;12.30;8.20;;;13.40;99.90;;;;;;5114332;28;20432;-55
2023/01/01 02:57:36;;;;;;;12.27;8.70;;;13.30;99.90;;;;;;5114267;28;20422;-55
2023/01/01 03:00:18;;;;;;;9.87;8.87;;;13.00;99.90;;;;;;5114171;28;20492;-55
2023/01/01 03:03:05;;;;;;;13.73;9.33;;;12.90;99.90;;;;;;5114221;28;20462;-55
2023/01/01 03:06:21;;;;;;;10.30;8.97;;;12.60;99.90;;;;;;5111048;28;20458;-55
2023/01/01 03:08:33;;;;;;;12.23;9.93;;;12.50;99.90;;;;;;5114105;28;20451;-55
2023/01/01 03:11:07;;;;;;;12.90;8.63;;;12.30;99.90;;;;;;5113373;28;20466;-55
2023/01/01 03:13:40;;;;;;;9.90;8.00;;;12.40;99.90;;;;;;5114095;28;20426;-55
2023/01/01 03:16:16;;;;;;;9.77;8.80;;;12.70;99.90;;;;;;5113876;28;20796;-55
2023/01/01 03:19:09;;;;;;;10.53;9.07;;;12.70;99.90;;;;;;5113801;28;20990;-55
2023/01/01 03:21:44;;;;;;;14.70;10.23;;;12.60;99.90;;;;;;5113984;28;20505;-55
2023/01/01 03:24:17;;;;;;;12.43;9.43;;;12.40;99.90;;;;;;5113756;28;20922;-55
2023/01/01 03:26:45;;;;;;;12.57;11.23;;;12.20;99.90;;;;;;5114090;28;20427;-55
2023/01/01 03:29:13;;;;;;;10.30;9.23;;;12.20;99.90;;;;;;5113772;28;20449;-55
2023/01/01 03:31:46;;;;;;;12.23;9.23;;;12.10;99.90;;;;;;5113949;28;20936;-55
2023/01/01 03:34:18;;;;;;;11.00;8.70;;;11.90;99.90;;;;;;5113882;28;20433;-55
2023/01/01 03:36:49;;;;;;;9.83;8.20;;;11.80;99.90;;;;;;5113791;28;20423;-55
2023/01/01 03:39:20;;;;;;;12.60;8.93;;;11.80;99.90;;;;;;5113758;28;20498;-55
2023/01/01 03:41:52;;;;;;;10.50;8.77;;;11.70;99.90;;;;;;5113949;28;20429;-55
2023/01/01 03:44:24;;;;;;;11.33;8.50;;;11.60;99.90;;;;;;5113333;28;20500;-55
2023/01/01 03:46:53;;;;;;;10.23;8.47;;;11.60;99.90;;;;;;5113539;28;20928;-55
2023/01/01 03:49:21;;;;;;;11.03;9.90;;;11.60;99.90;;;;;;5113683;28;20449;-55
2023/01/01 03:52:01;;;;;;;9.97;8.13;;;11.50;99.90;;;;;;5113766;28;20447;-55
2023/01/01 03:54:38;;;;;;;11.10;8.03;;;11.50;99.90;;;;;;5113487;28;20426;-55
2023/01/01 03:57:11;;;;;;;11.47;8.43;;;11.50;99.90;;;;;;5113680;28;20434;-55
2023/01/01 03:59:44;;;;;;;12.77;8.10;;;11.40;99.90;;;;;;5113656;28;20486;-55
2023/01/01 04:02:16;;;;;;;8.53;7.73;;;11.40;99.90;;;;;;5113784;28;20430;-55
2023/01/01 04:04:43;;;;;;;8.73;7.80;;;11.30;99.90;;;;;;5113822;28;20444;-55
2023/01/01 04:07:11;;;;;;;12.83;7.93;;;11.20;99.90;;;;;;5113191;28;20459;-55
2023/01/01 04:09:40;;;;;;;9.70;7.83;;;11.20;99.90;;;;;;5113294;28;20961;-55
2023/01/01 04:12:08;;;;;;;9.10;7.90;;;11.20;99.90;;;;;;5113541;28;20450;-55
2023/01/01 04:14:38;;;;;;;11.57;8.30;;;11.20;99.90;;;;;;5113408;28;20439;-55
2023/01/01 04:17:06;;;;;;;11.23;8.10;;;11.10;99.90;;;;;;5113106;28;20503;-55
2023/01/01 04:19:34;;;;;;;10.23;7.33;;;11.10;99.90;;;;;;5113384;28;20490;-55
2023/01/01 04:22:02;;;;;;;8.77;7.53;;;11.10;99.90;;;;;;5115341;28;20452;-55
2023/01/01 04:24:29;;;;;;;11.87;8.80;;;11.00;99.90;;;;;;5116983;28;20975;-55
2023/01/01 04:26:57;;;;;;;9.57;7.70;;;11.00;99.90;;;;;;5116832;28;20534;-55
2023/01/01 04:29:24;;;;;;;9.93;7.97;;;11.00;99.90;;;;;;5117157;28;20452;-55
2023/01/01 04:31:51;;;;;;;9.37;8.43;;;11.00;99.90;;;;;;5116728;28;20443;-55
2023/01/01 04:34:18;;;;;;;12.67;8.27;;;10.90;99.90;;;;;;5116761;28;20533;-55
2023/01/01 04:36:47;;;;;;;9.27;7.93;;;10.90;99.90;;;;;;5116743;28;20929;-55
2023/01/01 04:39:14;;;;;;;8.17;6.60;;;10.90;99.90;;;;;;5116891;28;20485;-55
2023/01/01 04:41:41;;;;;;;8.93;6.80;;;10.90;99.90;;;;;;5116825;28;20446;-55
2023/01/01 04:44:08;;;;;;;9.10;7.07;;;10.90;99.90;;;;;;5116498;28;20844;-55
2023/01/01 04:46:36;;;;;;;8.77;7.13;;;10.90;99.90;;;;;;5116852;28;20482;-55
2023/01/01 04:49:03;;;;;;;8.43;7.00;;;10.90;99.90;;;;;;5116572;28;20438;-55
2023/01/01 04:51:30;;;;;;;8.07;7.03;;;10.90;99.90;;;;;;5116609;28;20468;-55
2023/01/01 04:54:01;;;;;;;8.40;6.97;;;11.00;99.90;;;;;;5116615;28;20451;-56
2023/01/01 04:56:28;;;;;;;9.23;6.20;;;10.90;99.90;;;;;;5116276;28;20442;-55
2023/01/01 04:58:56;;;;;;;8.70;6.00;;;10.90;99.90;;;;;;5116488;28;20451;-55
2023/01/01 05:01:25;;;;;;;8.00;6.80;;;11.10;99.90;;;;;;5116050;28;20528;-55
2023/01/01 05:03:52;;;;;;;11.13;7.30;;;11.10;99.90;;;;;;5116479;28;20812;-55
2023/01/01 05:06:20;;;;;;;7.53;5.77;;;11.20;99.90;;;;;;5116480;28;20454;-55
2023/01/01 05:08:49;;;;;;;10.40;7.27;;;11.20;99.90;;;;;;5116681;28;20452;-55
2023/01/01 05:11:19;;;;;;;5.93;5.10;;;11.20;99.90;;;;;;5115954;28;20477;-55
2023/01/01 05:13:47;;;;;;;7.70;6.00;;;11.40;99.90;;;;;;5115989;28;20928;-55
2023/01/01 05:16:17;;;;;;;7.20;5.63;;;11.50;99.90;;;;;;5116191;28;20469;-55
2023/01/01 05:18:45;;;;;;;9.30;6.10;;;11.60;99.90;;;;;;5116217;28;20443;-55
2023/01/01 05:21:13;;;;;;;9.73;5.37;;;;;;;;;;5115986;28;20915;-55
2023/01/01 05:23:40;;;;;;;6.63;5.73;;;11.70;99.90;;;;;;5116119;28;20450;-55
2023/01/01 05:26:12;;;;;;;6.70;5.50;;;11.70;99.90;;;;;;5115891;28;20550;-55
2023/01/01 05:28:41;;;;;;;7.00;5.73;;;11.80;99.90;;;;;;5115709;28;20929;-55
2023/01/01 05:31:11;;;;;;;7.60;5.53;;;11.90;99.90;;;;;;5115853;28;20468;-55
2023/01/01 05:33:38;;;;;;;11.30;5.50;;;11.90;99.90;;;;;;5114830;28;20429;-55
2023/01/01 05:36:08;;;;;;;5.43;4.93;;;12.00;99.90;;;;;;5115461;28;20952;-55
2023/01/01 05:38:36;;;;;;;7.33;5.63;;;12.00;99.90;;;;;;5116030;28;20480;-55
2023/01/01 05:41:07;;;;;;;8.07;5.53;;;12.10;99.90;;;;;;5115363;28;20521;-56
2023/01/01 05:43:34;;;;;;;7.13;5.73;;;12.10;99.90;;;;;;5115462;28;20511;-56
2023/01/01 05:46:04;;;;;;;10.47;5.37;;;12.20;99.90;;;;;;5115610;28;20455;-56
2023/01/01 05:48:32;;;;;;;7.57;5.33;;;12.10;99.90;;;;;;5115367;28;20423;-55
2023/01/01 05:51:03;;;;;;;7.67;5.60;;;12.00;99.90;;;;;;5115137;28;20984;-55
2023/01/01 05:53:30;;;;;;;7.17;5.53;;;12.00;99.90;;;;;;5115909;28;20855;-56
2023/01/01 05:55:58;;;;;;;6.20;5.60;;;12.20;99.90;;;;;;5115353;28;20503;-56
2023/01/01 05:58:25;;;;;;;5.47;4.90;;;12.30;99.90;;;;;;5115447;28;20443;-56
2023/01/01 06:00:53;;;;;;;6.37;5.37;;;12.20;99.90;;;;;;5115316;28;20486;-54
2023/01/01 06:03:21;;;;;;;5.63;4.77;;;12.10;99.90;;;;;;5115009;28;20453;-54
2023/01/01 06:05:49;;;;;;;5.27;4.30;;;12.00;99.90;;;;;;5114924;28;20457;-55
2023/01/01 06:08:16;;;;;;;5.90;5.30;;;11.90;99.90;;;;;;5115350;28;20561;-54
2023/01/01 06:10:43;;;;;;;5.83;4.23;;;11.90;99.90;;;;;;5114806;28;20976;-54
2023/01/01 06:13:10;;;;;;;5.90;5.00;;;11.90;99.90;;;;;;5114981;28;20454;-55
2023/01/01 06:15:37;;;;;;;6.40;5.10;;;12.00;99.90;;;;;;5114828;28;20458;-55
2023/01/01 06:18:04;;;;;;;8.53;5.67;;;12.00;99.90;;;;;;5114965;28;20447;-54
2023/01/01 06:20:33;;;;;;;5.73;4.63;;;12.10;99.90;;;;;;5114845;28;20859;-55
2023/01/01 06:23:00;;;;;;;6.87;4.83;;;12.30;99.90;;;;;;5114909;28;20804;-54
2023/01/01 06:25:27;;;;;;;5.10;4.60;;;12.40;99.90;;;;;;5115021;28;20808;-54
2023/01/01 06:27:54;;;;;;;6.60;4.80;;;12.40;99.90;;;;;;5114470;28;20814;-55
2023/01/01 06:30:21;;;;;;;7.00;5.37;;;12.40;99.90;;;;;;5114535;28;20451;-54
2023/01/01 06:32:48;;;;;;;8.63;6.10;;;12.40;99.90;;;;;;5114308;28;20452;-54
2023/01/01 06:35:15;;;;;;;7.43;5.40;;;12.30;99.90;;;;;;5114845;28;20443;-54
2023/01/01 06:37:44;;;;;;;7.17;4.97;;;12.30;99.90;;;;;;5114577;28;20454;-54
2023/01/01 06:40:11;;;;;;;7.13;5.63;;;12.30;99.90;;;;;;5114527;28;20488;-54
2023/01/01 06:42:39;;;;;;;5.73;4.23;;;12.30;99.90;;;;;;5114225;28;20533;-54
2023/01/01 06:45:07;;;;;;;6.47;5.17;;;12.30;99.90;;;;;;5114066;28;20478;-54
2023/01/01 06:47:35;;;;;;;5.67;4.70;;;12.30;99.90;;;;;;5114436;28;20452;-54
2023/01/01 06:50:02;;;;;;;5.67;5.10;;;12.40;99.90;;;;;;5114423;28;20459;-55
2023/01/01 06:52:29;;;;;;;5.83;4.73;;;12.30;99.90;;;;;;5114162;28;20450;-54
2023/01/01 06:54:57;;;;;;;7.73;4.50;;;12.30;99.90;;;;;;5114529;28;20442;-54
2023/01/01 06:57:25;;;;;;;10.90;4.00;;;12.40;99.90;;;;;;5114209;28;20457;-55
2023/01/01 06:59:52;;;;;;;5.33;4.83;;;12.40;99.90;;;;;;5114320;28;20616;-54
2023/01/01 07:02:19;;;;;;;5.20;4.70;;;12.40;99.90;;;;;;5114255;28;20549;-54
2023/01/01 07:04:46;;;;;;;5.10;4.40;;;12.50;99.90;;;;;;5114402;28;20447;-54
2023/01/01 07:07:13;;;;;;;5.33;4.90;;;12.40;99.90;;;;;;5113954;28;20493;-55
2023/01/01 07:09:41;;;;;;;6.47;4.77;;;12.50;99.90;;;;;;5113867;28;20466;-54
2023/01/01 07:12:09;;;;;;;6.77;5.27;;;12.40;99.90;;;;;;5114228;28;20800;-55
2023/01/01 07:14:36;;;;;;;6.90;5.33;;;12.40;99.90;;;;;;5113858;28;20435;-54
2023/01/01 07:17:03;;;;;;;6.53;4.30;;;12.40;99.90;;;;;;5114218;28;20780;-55
2023/01/01 07:19:30;;;;;;;7.77;4.90;;;12.40;99.90;;;;;;5113934;28;20443;-55
2023/01/01 07:21:57;;;;;;;5.97;5.23;;;12.40;99.90;;;;;;5114157;28;20443;-55
2023/01/01 07:24:24;;;;;;;9.70;5.43;;;12.20;99.90;;;;;;5113995;28;20447;-55
2023/01/01 07:26:52;;;;;;;6.40;4.33;;;12.20;99.90;;;;;;5114092;28;20450;-55
2023/01/01 07:29:20;;;;;;;5.00;4.30;;;12.20;99.90;;;;;;5113554;28;20450;-55
2023/01/01 07:31:47;;;;;;;5.70;4.10;;;12.30;99.90;;;;;;5113667;28;20814;-55
2023/01/01 07:34:18;;;;;;;6.50;5.00;;;12.30;99.90;;;;;;5113711;28;20431;-55
2023/01/01 07:36:45;;;;;;;6.60;4.60;;;12.40;99.90;;;;;;5114422;28;20474;-55
2023/01/01 07:39:13;;;;;;;4.80;4.30;;;12.40;99.90;;;;;;5114026;28;20450;-55
2023/01/01 07:41:40;;;;;;;4.77;4.27;;;12.40;99.90;;;;;;5113815;28;20488;-55
2023/01/01 07:44:07;;;;;;;5.60;4.40;;;12.40;99.90;;;;;;5112267;28;20493;-55
2023/01/01 07:46:37;;;;;;;7.33;4.97;;;12.40;99.90;;;;;;5113536;28;20486;-55
2023/01/01 07:49:04;;;;;;;4.97;4.57;;;12.40;99.90;;;;;;5113470;28;20860;-55
2023/01/01 07:51:31;;;;;;;5.20;4.10;;;12.50;99.90;;;;;;5113730;28;20534;-55
2023/01/01 07:53:58;;;;;;;4.67;4.27;;;12.50;99.90;;;;;;5113435;28;20438;-55
2023/01/01 07:56:29;;;;;;;8.37;4.80;;;12.50;99.90;;;;;;5114550;28;20940;-55
2023/01/01 07:58:56;;;;;;;7.20;4.00;;;12.50;99.90;;;;;;5117483;28;20427;-55
2023/01/01 08:01:23;;;;;;;4.50;4.10;;;12.60;99.90;;;;;;5117710;28;20508;-55
2023/01/01 08:03:55;;;;;;;6.97;4.43;;;12.60;99.90;;;;;;5117323;28;20460;-55
2023/01/01 08:06:22;;;;;;;5.20;3.80;;;12.70;99.90;;;;;;5117656;28;20497;-55
2023/01/01 08:08:49;;;;;;;5.50;4.47;;;12.70;99.90;;;;;;5117631;28;20458;-56
2023/01/01 08:11:16;;;;;;;5.60;4.50;;;12.80;99.90;;;;;;5117152;28;20990;-55
2023/01/01 08:13:43;;;;;;;7.27;4.20;;;12.90;99.90;;;;;;5116923;28;20515;-55
2023/01/01 08:16:10;;;;;;;5.10;4.13;;;12.90;99.90;;;;;;5117217;28;20427;-55
2023/01/01 08:18:37;;;;;;;4.87;3.80;;;12.80;99.90;;;;;;5117330;28;20468;-55
2023/01/01 08:21:06;;;;;;;5.93;3.93;;;12.80;99.90;;;;;;5117214;28;20486;-55
2023/01/01 08:23:33;;;;;;;4.43;3.70;;;12.70;99.90;;;;;;5117190;28;20447;-56
2023/01/01 08:26:01;;;;;;;5.37;4.37;;;12.70;99.90;;;;;;5116981;28;20448;-55
2023/01/01 08:28:29;;;;;;;5.80;3.73;;;12.70;99.90;;;;;;5117104;28;20449;-55
2023/01/01 08:30:56;;;;;;;7.23;4.30;;;12.60;99.90;;;;;;5117166;28;20463;-55
2023/01/01 08:33:24;;;;;;;7.57;4.97;;;12.60;99.90;;;;;;5117004;28;20439;-55
2023/01/01 08:35:52;;;;;;;5.57;4.30;;;12.50;99.90;;;;;;5116958;28;21008;-55
2023/01/01 08:38:20;;;;;;;4.67;4.17;;;12.40;99.90;;;;;;5117112;28;20454;-55
2023/01/01 08:40:47;;;;;;;5.90;4.20;;;12.30;99.90;;;;;;5116432;28;20979;-55
2023/01/01 08:43:14;;;;;;;5.33;4.83;;;12.20;99.90;;;;;;5116334;28;20948;-55
2023/01/01 08:45:42;;;;;;;5.77;3.97;;;12.20;99.90;;;;;;5116753;28;20461;-55
2023/01/01 08:48:09;;;;;;;4.93;4.30;;;12.20;99.90;;;;;;5116767;28;20446;-55
2023/01/01 08:50:36;;;;;;;6.37;3.93;;;12.20;99.90;;;;;;5116640;28;20480;-55
2023/01/01 08:53:03;;;;;;;5.33;4.47;;;12.20;99.90;;;;;;5116405;28;20940;-55
2023/01/01 08:55:32;;;;;;;8.77;4.83;;;12.20;99.90;;;;;;5116265;28;21024;-55
2023/01/01 08:57:59;;;;;;;4.97;4.10;;;12.40;99.90;;;;;;5116321;28;20442;-55
2023/01/01 09:00:26;;;;;;;4.57;4.10;;;12.50;99.90;;;;;;5116243;28;20489;-55
2023/01/01 09:02:53;;;;;;;4.93;4.07;;;12.60;99.90;;;;;;5116360;28;20439;-55
2023/01/01 09:05:21;;;;;;;6.70;4.47;;;12.70;99.90;;;;;;5116415;28;20538;-55
2023/01/01 09:07:48;;;;;;;5.27;3.43;;;12.90;99.90;;;;;;5114941;28;20465;-55
2023/01/01 09:10:15;;;;;;;6.07;3.93;;;13.00;99.90;;;;;;5115917;28;20474;-55
2023/01/01 09:12:43;;;;;;;5.90;4.03;;;13.20;99.90;;;;;;5116592;28;20442;-55
2023/01/01 09:15:15;;;;;;;4.50;4.10;;;13.30;99.90;;;;;;5115996;28;20450;-55
2023/01/01 09:17:43;;;;;;;7.20;3.83;;;13.30;99.90;;;;;;5116286;28;20435;-55
2023/01/01 09:20:10;;;;;;;7.83;4.47;;;13.40;99.90;;;;;;5115852;28;20474;-55
2023/01/01 09:22:37;;;;;;;5.33;3.60;;;13.40;99.90;;;;;;5115990;28;20434;-55
2023/01/01 09:25:05;;;;;;;6.73;3.53;;;13.40;99.90;;;;;;5115786;28;20454;-55
2023/01/01 09:27:32;;;;;;;5.43;4.37;;;13.50;99.90;;;;;;5116040;28;20447;-55
2023/01/01 09:30:00;;;;;;;4.80;3.57;;;13.50;99.90;;;;;;5115844;28;20462;-55
2023/01/01 09:32:27;;;;;;;5.10;4.60;;;13.60;99.90;;;;;;5116285;28;20443;-55
2023/01/01 09:34:55;;;;;;;4.23;3.83;;;13.70;99.90;;;;;;5115486;28;20448;-55
2023/01/01 09:37:23;;;;;;;5.50;4.07;;;13.80;99.90;;;;;;5115778;28;20785;-55
2023/01/01 09:39:50;;;;;;;6.20;3.90;;;13.80;99.90;;;;;;5115775;28;20545;-55
2023/01/01 09:42:27;;;;;;;8.43;4.50;;;13.80;99.90;;;;;;5115657;28;20551;-55
2023/01/01 09:45:01;;;;;;;4.57;3.67;;;;;;;;;;5115176;28;20485;-55
2023/01/01 09:47:34;;;;;;;5.73;3.97;;;14.00;99.90;;;;;;5115769;28;20491;-55
2023/01/01 09:50:05;;;;;;;5.20;4.00;;;14.00;99.90;;;;;;5115502;28;20467;-55
2023/01/01 09:52:41;;;;;;;5.43;3.80;;;14.00;99.90;;;;;;5115536;28;20451;-55
2023/01/01 09:55:18;;;;;;;4.40;3.60;;;14.00;99.90;;;;;;5115501;28;20792;-55
2023/01/01 09:57:45;;;;;;;6.43;3.40;;;14.00;99.90;;;;;;5115019;28;20481;-55
2023/01/01 10:00:16;;;;;;;7.10;4.43;;;14.00;99.90;;;;;;5115066;28;20990;-55
2023/01/01 10:03:03;;;;;;;4.37;3.77;;;14.00;99.90;;;;;;5115061;28;20481;-55
2023/01/01 10:05:37;;;;;;;5.20;4.70;;;14.10;99.90;;;;;;5115295;28;20861;-55
2023/01/01 10:08:10;;;;;;;4.60;4.03;;;14.20;99.90;;;;;;5115244;28;20458;-55
2023/01/01 10:10:40;;;;;;;5.70;3.60;;;14.30;99.90;;;;;;5114846;28;20474;-55
2023/01/01 10:13:17;;;;;;;4.80;3.77;;;14.40;99.90;;;;;;5114752;28;20431;-55
2023/01/01 10:15:53;;;;;;;7.63;3.70;;;14.50;99.90;;;;;;5114708;28;20923;-55
2023/01/01 10:18:26;;;;;;;4.00;3.60;;;14.60;99.90;;;;;;5114824;28;20411;-55
2023/01/01 10:20:59;;;;;;;6.40;5.13;;;14.80;99.90;;;;;;5114163;28;20482;-55
2023/01/01 10:23:29;;;;;;;5.70;4.10;;;14.90;99.90;;;;;;5114902;28;20427;-55
2023/01/01 10:25:59;;;;;;;7.33;4.57;;;15.10;99.90;;;;;;5114869;28;20457;-55
2023/01/01 10:28:35;;;;;;;3.87;3.57;;;15.20;99.90;;;;;;5114489;28;20450;-55
2023/01/01 10:31:15;;;;;;;4.40;3.77;;;15.40;99.90;;;;;;5114751;28;20458;-55
2023/01/01 10:33:45;;;;;;;5.03;3.63;;;15.60;99.90;;;;;;5114742;28;20427;-55
2023/01/01 10:36:15;;;;;;;4.87;3.60;;;15.70;99.90;;;;;;5114624;28;20446;-55
2023/01/01 10:38:43;;;;;;;6.90;3.20;;;15.80;99.90;;;;;;5114832;28;20459;-55
2023/01/01 10:41:11;;;;;;;4.80;4.10;;;15.90;99.90;;;;;;5114488;28;20486;-55
2023/01/01 10:43:38;;;;;;;5.30;4.13;;;16.30;99.90;;;;;;5114261;28;20596;-55
2023/01/01 10:46:06;;;;;;;5.10;3.83;;;16.90;99.90;;;;;;5114268;28;20928;-55
2023/01/01 10:48:34;;;;;;;3.97;3.57;;;17.50;99.90;;;;;;5114599;28;20529;-55
2023/01/01 10:51:06;;;;;;;4.50;3.70;;;18.00;99.90;;;;;;5114259;28;20964;-55
2023/01/01 10:53:36;;;;;;;5.60;3.70;;;18.20;99.90;;;;;;5114060;28;20440;-55
2023/01/01 10:56:08;;;;;;;5.27;3.80;;;;;;;;;;5114142;28;20422;-55
2023/01/01 10:58:46;;;;;;;5.17;3.90;;;19.00;99.90;;;;;;5113963;28;20474;-56
2023/01/01 11:01:20;;;;;;;7.30;4.07;;;18.90;99.90;;;;;;5114078;28;20477;-56
2023/01/01 11:03:59;;;;;;;6.17;3.67;;;19.30;99.90;;;;;;5114069;28;20438;-56
2023/01/01 11:06:31;;;;;;;4.13;3.80;;;19.20;99.90;;;;;;5114292;28;20837;-55
2023/01/01 11:09:02;;;;;;;5.17;3.40;;;19.50;99.90;;;;;;5114373;28;20856;-56
2023/01/01 11:11:31;;;;;;;5.33;3.83;;;19.60;99.90;;;;;;5114245;28;20465;-56
2023/01/01 11:14:03;;;;;;;7.30;4.67;;;19.80;99.90;;;;;;5113990;28;20476;-56
2023/01/01 11:16:31;;;;;;;7.07;4.00;;;20.10;99.90;;;;;;5114234;28;20450;-55
2023/01/01 11:19:04;;;;;;;4.90;4.33;;;19.70;99.90;;;;;;5114019;28;20537;-55
2023/01/01 11:21:34;;;;;;;5.73;3.90;;;19.80;99.90;;;;;;5114265;28;20505;-56
2023/01/01 11:24:17;;;;;;;4.67;3.33;;;19.90;99.90;;;;;;5113661;28;20963;-55
2023/01/01 11:26:45;;;;;;;4.27;3.60;;;20.10;99.90;;;;;;5113745;28;20431;-56
2023/01/01 11:29:23;;;;;;;4.00;3.60;;;20.60;99.90;;;;;;5114035;28;20537;-56
2023/01/01 11:31:52;;;;;;;5.97;3.63;;;21.20;99.90;;;;;;5115582;28;20984;-56
2023/01/01 11:34:34;;;;;;;4.20;3.80;;;21.00;99.10;;;;;;5117927;28;20453;-56
2023/01/01 11:37:19;;;;;;;6.30;3.80;;;21.20;98.90;;;;;;5117783;28;20457;-56
2023/01/01 11:39:49;;;;;;;4.17;3.27;;;21.50;98.60;;;;;;5117996;28;20867;-56
2023/01/01 11:42:18;;;;;;;3.70;3.30;;;21.20;98.60;;;;;;5117763;28;20996;-55
2023/01/01 11:44:48;;;;;;;8.93;3.80;;;20.80;98.20;;;;;;5117440;28;20849;-56
2023/01/01 11:47:25;;;;;;;6.60;3.10;;;19.60;99.00;;;;;;5117944;28;20973;-56
2023/01/01 11:49:58;;;;;;;4.20;3.13;;;19.20;99.50;;;;;;5117838;28;20472;-55
2023/01/01 11:52:37;;;;;;;4.70;3.83;;;19.00;99.90;;;;;;5117909;28;20775;-55
2023/01/01 11:55:14;;;;;;;6.53;4.17;;;18.90;99.90;;;;;;5117511;28;20435;-55
2023/01/01 11:57:46;;;;;;;4.10;3.17;;;18.90;99.90;;;;;;5117406;28;20785;-55
2023/01/01 12:00:16;;;;;;;9.00;3.53;;;18.60;99.90;;;;;;5117430;28;20490;-55
2023/01/01 12:02:50;;;;;;;4.50;3.70;;;18.70;99.90;;;;;;5117213;28;20983;-55
2023/01/01 12:05:23;;;;;;;6.43;3.17;;;18.40;99.90;;;;;;5117585;28;20426;-55
2023/01/01 12:07:52;;;;;;;6.37;4.07;;;18.20;99.90;;;;;;5117311;28;20944;-55
2023/01/01 12:10:24;;;;;;;6.40;3.13;;;18.10;99.90;;;;;;5117407;28;20566;-55
2023/01/01 12:12:57;;;;;;;3.83;3.43;;;18.10;99.90;;;;;;5116972;28;20412;-56
2023/01/01 12:15:29;;;;;;;7.00;3.30;;;18.10;99.90;;;;;;5117026;28;20513;-55
2023/01/01 12:18:03;;;;;;;6.00;3.30;;;18.10;99.90;;;;;;5117197;28;20427;-56
2023/01/01 12:20:35;;;;;;;5.00;3.47;;;18.20;99.90;;;;;;5117337;28;20457;-56
2023/01/01 12:23:03;;;;;;;3.40;2.73;;;18.30;99.90;;;;;;5116944;28;20466;-55
2023/01/01 12:25:36;;;;;;;5.30;3.50;;;18.50;99.90;;;;;;5116801;28;20900;-56
2023/01/01 12:28:18;;;;;;;3.93;3.53;;;18.40;99.90;;;;;;5117254;28;20440;-55
2023/01/01 12:30:53;;;;;;;4.93;3.27;;;18.30;99.90;;;;;;5116789;28;20462;-55
2023/01/01 12:33:40;;;;;;;5.93;3.00;;;18.30;99.90;;;;;;5117307;28;20497;-55
2023/01/01 12:36:28;;;;;;;8.70;3.07;;;18.20;99.90;;;;;;5117129;28;20440;-55
2023/01/01 12:39:56;;;;;;;5.57;3.20;;;18.10;99.90;;;;;;5116641;28;20461;-55
2023/01/01 12:42:35;;;;;;;4.30;3.10;;;18.10;99.90;;;;;;5116154;28;21015;-55
2023/01/01 12:45:23;;;;;;;11.03;3.20;;;18.00;99.90;;;;;;5116547;28;20458;-55
2023/01/01 12:47:59;;;;;;;3.63;2.90;;;17.90;99.90;;;;;;5116619;28;20526;-55
2023/01/01 12:50:37;;;;;;;6.77;3.30;;;18.10;99.90;;;;;;5116738;28;20545;-56
2023/01/01 12:53:17;;;;;;;6.60;3.00;;;18.20;99.90;;;;;;5116463;28;20423;-55
2023/01/01 12:56:18;;;;;;;5.60;3.40;;;18.10;99.90;;;;;;5116354;28;20765;-55
2023/01/01 12:58:50;;;;;;;3.63;2.90;;;18.10;99.90;;;;;;5072280;28;20457;-55
2023/01/01 13:01:21;;;;;;;5.53;3.13;;;18.00;99.90;;;;;;5116222;28;20465;-55
2023/01/01 13:03:51;;;;;;;5.27;2.80;;;18.00;99.90;;;;;;5116719;28;20433;-55